Time;durP1;ratioP1;P1;durP2;ratioP2;P2;SDS_P1;SDS_P2;PMS_P1;PMS_P2;Temp;Humidity;BMP_temperature;BMP_pressure;BME280_temperature;BME280_humidity;BME280_pressure;Samples;Min_cycle;Max_cycle;Signal;HPM_P1;HPM_P2
2024/01/30 00:12:31;;;;;;;6.25;3.63;;;11.90;82.70;;;;;;4997805;22;20313;-79
2024/01/30 01:35:05;;;;;;;5.93;3.63;;;11.80;82.80;;;;;;5196855;23;20428;-79
2024/01/30 01:37:32;;;;;;;6.50;3.92;;;11.80;82.80;;;;;;4958125;28;20036;-83
2024/01/30 01:40:21;;;;;;;6.20;4.20;;;11.70;82.70;;;;;;4943830;28;20035;-81
2024/01/30 01:43:00;;;;;;;5.65;3.50;;;11.90;82.90;;;;;;4959331;28;20024;-82
2024/01/30 01:45:37;;;;;;;6.78;4.15;;;12.00;82.90;;;;;;4946566;28;20008;-81
2024/01/30 01:48:29;;;;;;;6.40;3.80;;;11.70;82.70;;;;;;4933292;28;20087;-82
2024/01/30 01:51:40;;;;;;;5.90;3.95;;;11.80;82.80;;;;;;4963427;28;20071;-81
2024/01/30 01:54:08;;;;;;;6.28;3.75;;;11.90;82.90;;;;;;5155641;23;20028;-81
2024/01/30 01:56:38;;;;;;;6.05;3.78;;;11.80;82.80;;;;;;4927893;28;20052;-80
2024/01/30 02:01:41;;;;;;;5.85;3.50;;;11.80;82.80;;;;;;4983488;23;20055;-80
2024/01/30 02:04:18;;;;;;;6.85;4.40;;;11.80;82.80;;;;;;4946812;28;20043;-81
2024/01/30 02:06:44;;;;;;;6.05;3.58;;;11.80;82.90;;;;;;4931063;28;20055;-81
2024/01/30 02:09:13;;;;;;;6.13;3.40;;;11.90;83.00;;;;;;4962709;28;20016;-81
2024/01/30 02:11:41;;;;;;;5.65;3.50;;;11.80;82.90;;;;;;4962757;28;20016;-83
2024/01/30 02:14:34;;;;;;;6.57;3.72;;;11.80;82.80;;;;;;5077054;23;20031;-82
2024/01/30 02:17:03;;;;;;;6.05;3.85;;;11.70;82.90;;;;;;4962751;28;20038;-81
2024/01/30 02:20:11;;;;;;;6.47;3.75;;;11.90;83.00;;;;;;4942521;29;20025;-82
2024/01/30 02:22:40;;;;;;;6.15;4.10;;;11.80;83.00;;;;;;4926935;29;20009;-81
2024/01/30 02:25:08;;;;;;;6.18;3.78;;;11.80;82.90;;;;;;4946659;28;20040;-81
2024/01/30 02:27:35;;;;;;;6.00;4.10;;;11.80;82.90;;;;;;4942464;28;20043;-81
2024/01/30 02:30:03;;;;;;;5.72;3.70;;;11.80;82.90;;;;;;4930802;28;20084;-83
2024/01/30 02:42:57;;;;;;;5.78;3.78;;;11.80;82.90;;;;;;5032457;23;20040;-81
2024/01/30 02:58:47;;;;;;;6.88;4.20;;;11.80;82.90;;;;;;5437454;23;20036;-81
2024/01/30 03:01:19;;;;;;;6.40;4.07;;;11.90;83.00;;;;;;5047092;23;20039;-81
2024/01/30 03:03:58;;;;;;;6.75;4.10;;;12.00;83.10;;;;;;4899270;29;20025;-83
2024/01/30 03:06:26;;;;;;;7.38;4.40;;;11.80;83.00;;;;;;4873902;29;20046;-81
2024/01/30 03:55:43;;;;;;;6.43;3.95;;;11.80;83.10;;;;;;5809559;23;20036;-81
2024/01/30 04:00:50;;;;;;;5.80;3.78;;;11.80;83.10;;;;;;5447653;23;20032;-81
2024/01/30 04:04:01;;;;;;;6.45;3.80;;;12.00;83.20;;;;;;4962453;29;20022;-82
2024/01/30 04:06:35;;;;;;;5.35;3.35;;;11.70;83.00;;;;;;4961119;29;20060;-81
2024/01/30 04:12:08;;;;;;;5.82;3.90;;;11.80;83.10;;;;;;5088853;23;20047;-80
2024/01/30 04:19:56;;;;;;;6.20;4.10;;;11.80;83.10;;;;;;5504190;23;20040;-81
2024/01/30 04:22:45;;;;;;;6.75;3.88;;;12.00;83.20;;;;;;4961552;29;20035;-81
2024/01/30 04:25:17;;;;;;;6.38;4.22;;;12.20;83.40;;;;;;4944377;28;20083;-82
2024/01/30 12:43:44;;;;;;;8.90;3.58;;;12.00;83.20;;;;;;3419488;23;20308;-79
2024/01/30 13:11:34;;;;;;;7.10;3.50;;;12.00;83.20;;;;;;5145022;23;20027;-80
2024/01/30 14:01:14;;;;;;;14.32;5.15;;;11.80;83.20;;;;;;5059557;23;20063;-84
2024/01/30 14:03:43;;;;;;;14.45;5.25;;;12.00;83.30;;;;;;4947260;29;20012;-84
2024/01/30 14:06:14;;;;;;;14.77;5.20;;;11.80;83.20;;;;;;4933048;29;20012;-84
2024/01/30 14:08:42;;;;;;;15.05;5.63;;;11.90;83.30;;;;;;4948670;29;20064;-84
2024/01/30 14:13:55;;;;;;;12.10;5.78;;;11.80;83.30;;;;;;5900845;23;20027;-82
2024/01/30 14:16:24;;;;;;;10.93;4.78;;;11.90;83.40;;;;;;4962661;28;20032;-81
2024/01/30 14:18:50;;;;;;;18.05;5.70;;;11.80;83.20;;;;;;4946137;28;20084;-81
2024/01/30 15:39:15;;;;;;;8.77;4.88;;;11.90;83.60;;;;;;4975110;23;20027;-83
2024/01/30 15:41:52;;;;;;;10.60;4.38;;;11.80;83.60;;;;;;4962688;29;20046;-84
2024/01/30 15:44:23;;;;;;;6.78;4.07;;;11.90;83.60;;;;;;4943546;29;20064;-83
2024/01/30 15:47:12;;;;;;;9.13;4.30;;;11.80;83.60;;;;;;4942948;29;20027;-84
2024/01/30 15:49:43;;;;;;;9.00;4.55;;;11.80;83.60;;;;;;4942732;29;20015;-84
2024/01/30 15:52:20;;;;;;;8.18;4.20;;;11.80;83.60;;;;;;4943774;29;20012;-84
2024/01/30 15:54:50;;;;;;;9.35;4.40;;;11.90;83.70;;;;;;4927996;29;20044;-83
2024/01/30 15:57:20;;;;;;;10.60;4.13;;;12.20;83.90;;;;;;4927140;29;20016;-83
2024/01/30 15:59:51;;;;;;;10.02;4.43;;;11.90;83.70;;;;;;4912038;29;20008;-84
2024/01/30 16:02:45;;;;;;;8.95;4.40;;;11.90;83.70;;;;;;4926163;29;20036;-84
2024/01/30 16:05:41;;;;;;;7.85;3.92;;;11.80;83.70;;;;;;4927305;29;20004;-83
2024/01/30 16:08:28;;;;;;;10.23;4.30;;;12.00;83.80;;;;;;4930457;29;20032;-81
2024/01/30 16:16:12;;;;;;;8.40;4.25;;;11.90;83.80;;;;;;5512613;23;20074;-83
2024/01/30 17:08:00;;;;;;;8.93;3.83;;;11.80;84.00;;;;;;1228994;23;20036;-78
2024/01/30 17:10:26;;;;;;;7.50;4.15;;;11.90;84.10;;;;;;5298713;23;20113;-79
2024/01/30 17:12:58;;;;;;;8.60;3.70;;;11.90;84.10;;;;;;4942088;28;20028;-80
2024/01/30 17:15:24;;;;;;;7.63;4.20;;;11.80;84.00;;;;;;5021339;23;20031;-79
2024/01/30 17:17:50;;;;;;;9.48;4.35;;;11.80;84.10;;;;;;4965872;28;20042;-81
2024/01/30 17:20:16;;;;;;;6.95;4.00;;;11.80;84.10;;;;;;4966117;28;20079;-79
2024/01/30 17:22:41;;;;;;;7.88;4.18;;;11.70;84.00;;;;;;4982633;28;20020;-80
2024/01/30 17:25:10;;;;;;;6.43;3.90;;;11.80;84.00;;;;;;4950040;28;20035;-80
2024/01/30 17:27:48;;;;;;;8.15;4.22;;;11.80;84.00;;;;;;5009386;23;20028;-81
2024/01/30 19:08:36;;;;;;;5.85;3.20;;;11.80;84.20;;;;;;4959630;28;20062;-81
2024/01/30 19:11:02;;;;;;;7.40;3.22;;;11.80;84.30;;;;;;4945053;28;20031;-81
2024/01/30 19:13:28;;;;;;;6.15;3.13;;;11.90;84.30;;;;;;4945093;28;20012;-80
2024/01/30 19:15:54;;;;;;;5.82;3.08;;;11.70;84.20;;;;;;4929746;28;20112;-80
2024/01/30 19:18:20;;;;;;;5.43;3.10;;;11.70;84.20;;;;;;4945396;28;20019;-81
2024/01/30 19:20:48;;;;;;;7.45;3.50;;;11.80;84.20;;;;;;4944631;28;20023;-80
2024/01/30 19:23:16;;;;;;;5.38;3.10;;;11.90;84.30;;;;;;4961545;28;20027;-81
2024/01/30 19:25:43;;;;;;;5.88;3.00;;;11.90;84.40;;;;;;4961142;28;20016;-80
2024/01/30 19:28:11;;;;;;;5.35;3.13;;;11.70;84.20;;;;;;5231376;23;20055;-80
2024/01/30 19:30:45;;;;;;;5.68;2.97;;;11.70;84.20;;;;;;4960227;28;20075;-80
2024/01/30 19:33:12;;;;;;;6.50;3.17;;;11.60;84.20;;;;;;4941944;28;20076;-80
2024/01/30 19:35:37;;;;;;;5.32;3.05;;;11.90;84.30;;;;;;4942039;28;20037;-82
2024/01/30 19:38:04;;;;;;;5.35;3.10;;;11.90;84.30;;;;;;4924703;28;20036;-80
2024/01/30 19:40:30;;;;;;;5.03;2.97;;;11.80;84.30;;;;;;5219552;23;20036;-80
2024/01/30 19:42:59;;;;;;;6.25;3.00;;;11.70;84.20;;;;;;4940598;28;20032;-80
2024/01/30 19:45:27;;;;;;;6.55;3.03;;;11.80;84.30;;;;;;4942323;28;20005;-80
2024/01/30 19:47:55;;;;;;;6.07;2.90;;;12.20;84.50;;;;;;4941963;28;20028;-80
2024/01/30 19:50:21;;;;;;;5.20;2.72;;;11.80;84.30;;;;;;4925613;28;20008;-80
2024/01/30 19:52:50;;;;;;;4.43;2.70;;;11.80;84.30;;;;;;4941280;28;20032;-81
2024/01/30 19:55:18;;;;;;;5.47;3.00;;;11.80;84.30;;;;;;4925826;28;20076;-81
2024/01/30 19:57:44;;;;;;;5.78;3.10;;;11.80;84.30;;;;;;4925968;28;20013;-81
2024/01/30 20:05:23;;;;;;;4.63;2.78;;;11.80;84.30;;;;;;5132512;23;20023;-80
2024/01/30 20:07:49;;;;;;;4.45;2.75;;;11.80;84.30;;;;;;4944337;28;20046;-79
2024/01/30 20:10:21;;;;;;;5.82;2.92;;;11.80;84.30;;;;;;4961001;28;20016;-80
2024/01/30 20:12:47;;;;;;;5.22;2.70;;;11.80;84.30;;;;;;4944600;28;20015;-81
2024/01/30 20:15:16;;;;;;;4.78;2.58;;;11.80;84.30;;;;;;4985098;23;20058;-81
2024/01/30 20:35:56;;;;;;;6.53;3.13;;;11.80;84.30;;;;;;5593617;23;20079;-81
2024/01/30 20:38:25;;;;;;;5.10;2.50;;;11.80;84.40;;;;;;4960277;28;20027;-81
2024/01/30 20:40:51;;;;;;;6.68;2.90;;;11.80;84.40;;;;;;4944210;28;20020;-80
2024/01/30 20:43:19;;;;;;;5.15;2.80;;;11.80;84.40;;;;;;4960063;28;20015;-79
2024/01/30 20:45:45;;;;;;;5.38;2.83;;;11.70;84.30;;;;;;4943834;28;20020;-80
2024/01/30 20:48:11;;;;;;;4.80;2.75;;;11.90;84.50;;;;;;4958009;28;20081;-80
2024/01/30 20:50:36;;;;;;;5.68;2.95;;;11.80;84.40;;;;;;4959957;28;20107;-80
2024/01/30 20:53:02;;;;;;;5.15;2.83;;;12.00;84.50;;;;;;4962138;28;20096;-80
2024/01/30 20:55:27;;;;;;;5.40;2.88;;;11.80;84.40;;;;;;4942135;28;20031;-80
2024/01/30 20:57:53;;;;;;;5.85;3.20;;;11.90;84.50;;;;;;4960100;28;20023;-79
2024/01/30 21:00:19;;;;;;;4.63;2.63;;;11.70;84.30;;;;;;4945111;28;20004;-79
2024/01/30 21:02:44;;;;;;;5.20;3.03;;;11.80;84.40;;;;;;4944895;28;20055;-78
2024/01/30 21:05:10;;;;;;;4.85;2.92;;;11.80;84.40;;;;;;4962048;28;20076;-79
2024/01/30 21:07:35;;;;;;;5.00;2.72;;;11.80;84.40;;;;;;4945349;28;20047;-79
2024/01/30 21:10:01;;;;;;;5.30;2.97;;;11.90;84.50;;;;;;4944846;28;20039;-79
2024/01/30 21:12:27;;;;;;;5.95;2.72;;;11.80;84.40;;;;;;4961362;28;20104;-79
2024/01/30 21:14:53;;;;;;;5.28;3.00;;;11.80;84.40;;;;;;4944905;28;20023;-79
2024/01/30 21:17:19;;;;;;;4.65;2.58;;;11.80;84.40;;;;;;4944562;28;20083;-79
2024/01/30 21:19:44;;;;;;;4.78;2.80;;;11.70;84.40;;;;;;4944640;28;20084;-79
2024/01/30 21:22:10;;;;;;;4.93;2.72;;;11.80;84.40;;;;;;4942994;28;20026;-78
2024/01/30 21:24:35;;;;;;;5.32;2.55;;;11.80;84.40;;;;;;4959837;28;20060;-78
2024/01/30 21:27:01;;;;;;;5.25;2.88;;;11.80;84.50;;;;;;4960458;28;20035;-79
2024/01/30 21:29:26;;;;;;;4.68;2.63;;;11.80;84.40;;;;;;4943695;28;20114;-79
2024/01/30 21:31:52;;;;;;;6.00;2.60;;;11.80;84.50;;;;;;4944236;28;20028;-79
2024/01/30 21:34:17;;;;;;;5.10;2.70;;;11.80;84.40;;;;;;4944711;28;20016;-79
2024/01/30 21:36:43;;;;;;;5.03;2.85;;;11.80;84.50;;;;;;4944239;28;20043;-79
2024/01/30 21:39:09;;;;;;;5.25;2.83;;;11.80;84.50;;;;;;4944623;28;20055;-78
2024/01/30 21:41:34;;;;;;;5.43;2.95;;;11.80;84.50;;;;;;4944214;28;20028;-79
2024/01/30 21:44:00;;;;;;;5.20;3.10;;;11.80;84.50;;;;;;4943550;28;20020;-79
2024/01/30 21:46:27;;;;;;;4.97;2.75;;;11.80;84.50;;;;;;4960347;28;20019;-79
2024/01/30 21:48:53;;;;;;;6.45;2.80;;;11.80;84.50;;;;;;4944028;28;20035;-79
2024/01/30 21:51:19;;;;;;;6.13;2.45;;;11.80;84.50;;;;;;4961164;28;20087;-78
2024/01/30 21:53:44;;;;;;;5.50;2.90;;;11.80;84.50;;;;;;4943794;28;20043;-79
2024/01/30 21:56:10;;;;;;;4.57;2.70;;;11.80;84.50;;;;;;4960485;28;20032;-79
2024/01/30 21:58:36;;;;;;;4.95;3.00;;;11.80;85.00;;;;;;4960717;28;20040;-79
2024/01/30 22:01:01;;;;;;;5.70;2.72;;;11.90;84.60;;;;;;4942690;28;20027;-78
2024/01/30 22:03:27;;;;;;;4.82;2.95;;;11.80;84.50;;;;;;4959845;28;20072;-79
2024/01/30 22:05:52;;;;;;;5.47;2.88;;;11.80;84.50;;;;;;4943863;28;20047;-79
2024/01/30 22:08:18;;;;;;;5.88;2.95;;;11.80;85.00;;;;;;4960609;28;20015;-79
2024/01/30 22:10:43;;;;;;;6.05;2.92;;;11.80;84.50;;;;;;4944232;28;20031;-79
2024/01/30 22:13:09;;;;;;;5.85;2.83;;;11.80;84.50;;;;;;4959930;28;20079;-80
2024/01/30 22:15:36;;;;;;;5.28;2.65;;;11.80;84.50;;;;;;4943350;28;20024;-79
2024/01/30 22:18:02;;;;;;;5.05;2.67;;;11.80;84.50;;;;;;4944144;28;20079;-79
2024/01/30 22:20:28;;;;;;;5.90;2.78;;;12.10;84.70;;;;;;4960004;28;20036;-79
2024/01/30 22:22:54;;;;;;;4.68;2.50;;;12.30;84.80;;;;;;4959565;28;20048;-79
2024/01/30 22:25:19;;;;;;;5.22;2.88;;;11.80;84.50;;;;;;4943895;28;20048;-79
2024/01/30 22:27:45;;;;;;;5.57;2.80;;;11.70;84.50;;;;;;4960481;28;20019;-79
2024/01/30 22:30:11;;;;;;;5.03;3.00;;;11.80;84.50;;;;;;4959329;28;20080;-77
2024/01/30 22:32:36;;;;;;;5.45;3.10;;;11.80;84.50;;;;;;4943253;28;20099;-79
2024/01/30 22:35:09;;;;;;;5.03;2.72;;;11.80;84.50;;;;;;4942974;28;20028;-77
2024/01/30 22:37:36;;;;;;;5.20;2.72;;;11.80;84.50;;;;;;4943224;28;20031;-79
2024/01/30 22:40:01;;;;;;;4.75;2.50;;;11.80;84.50;;;;;;4943325;28;20016;-78
2024/01/30 22:42:27;;;;;;;4.97;2.60;;;11.80;84.50;;;;;;4959338;28;20046;-79
2024/01/30 22:44:52;;;;;;;5.00;2.75;;;11.80;84.50;;;;;;4943095;28;20047;-79
2024/01/30 22:47:18;;;;;;;4.63;2.50;;;11.80;84.50;;;;;;4943131;28;20019;-79
2024/01/30 22:49:43;;;;;;;5.13;2.60;;;11.80;84.50;;;;;;4943117;28;20010;-79
2024/01/30 22:52:09;;;;;;;4.43;2.55;;;11.80;84.60;;;;;;4942722;28;20032;-79
2024/01/30 22:54:34;;;;;;;4.22;2.50;;;11.80;84.60;;;;;;4959683;28;20034;-79
2024/01/30 22:57:00;;;;;;;4.95;2.72;;;11.80;84.60;;;;;;4943119;28;20031;-79
2024/01/30 22:59:25;;;;;;;5.35;2.63;;;11.80;84.60;;;;;;4942866;28;20035;-79
2024/01/30 23:01:51;;;;;;;4.78;2.47;;;11.80;84.60;;;;;;4942050;28;20020;-78
2024/01/30 23:04:16;;;;;;;5.50;2.88;;;11.70;84.50;;;;;;4942963;28;20018;-79
2024/01/30 23:06:42;;;;;;;5.30;2.78;;;11.80;84.60;;;;;;4959336;28;20059;-80
2024/01/30 23:09:07;;;;;;;5.03;2.50;;;11.80;84.60;;;;;;4942949;28;20011;-79
2024/01/30 23:11:33;;;;;;;4.55;2.40;;;11.80;84.60;;;;;;4942568;28;20031;-79
2024/01/30 23:13:58;;;;;;;4.75;2.60;;;11.80;84.60;;;;;;4942674;28;20030;-79
2024/01/30 23:16:24;;;;;;;4.47;2.58;;;11.80;84.60;;;;;;4942844;29;20083;-79
2024/01/30 23:18:52;;;;;;;5.05;2.70;;;11.80;84.60;;;;;;4942242;28;20035;-79
2024/01/30 23:21:18;;;;;;;4.78;2.47;;;11.80;84.50;;;;;;4942400;28;20051;-78
2024/01/30 23:23:44;;;;;;;5.38;2.60;;;11.80;84.60;;;;;;4958860;28;20011;-79
2024/01/30 23:26:10;;;;;;;4.35;2.47;;;11.80;84.60;;;;;;4942442;28;20027;-79
2024/01/30 23:28:35;;;;;;;5.72;2.60;;;11.70;84.50;;;;;;4959441;28;20028;-78
2024/01/30 23:31:01;;;;;;;4.55;2.45;;;11.80;84.60;;;;;;4941461;28;20016;-79
2024/01/30 23:33:27;;;;;;;4.28;2.47;;;11.80;84.60;;;;;;4941604;28;20035;-79
2024/01/30 23:35:52;;;;;;;3.58;2.17;;;11.80;84.60;;;;;;4958761;28;20031;-79
2024/01/30 23:38:18;;;;;;;3.30;2.00;;;11.80;84.60;;;;;;4942413;28;20019;-79
2024/01/30 23:40:43;;;;;;;5.07;2.58;;;11.80;84.60;;;;;;4941683;28;20008;-79
2024/01/30 23:43:09;;;;;;;4.40;2.25;;;11.80;84.60;;;;;;4941430;28;20051;-79
2024/01/30 23:45:35;;;;;;;4.35;2.53;;;11.80;84.60;;;;;;4942438;28;20042;-79
2024/01/30 23:48:00;;;;;;;4.05;2.35;;;11.80;84.60;;;;;;4942318;28;20027;-79
2024/01/30 23:50:25;;;;;;;4.00;2.08;;;11.80;84.60;;;;;;4942454;28;20091;-79
2024/01/30 23:52:51;;;;;;;3.88;2.08;;;11.80;84.60;;;;;;4941137;28;20012;-79
2024/01/30 23:55:17;;;;;;;4.40;2.28;;;11.80;84.60;;;;;;4940934;28;20020;-79
2024/01/30 23:57:42;;;;;;;4.40;2.08;;;11.80;84.60;;;;;;4941753;28;20047;-79
